createdAt,value
2018-07-19T00:00:02.098Z,50.33
2018-07-19T00:02:31.009Z,50.43
2018-07-19T00:04:59.479Z,49.62
2018-07-19T00:07:29.855Z,49.96
2018-07-19T00:09:58.445Z,50.21
2018-07-19T00:12:27.035Z,50.54
2018-07-19T00:14:56.030Z,50.38
2018-07-19T00:17:24.878Z,51.14
2018-07-19T00:19:53.951Z,51.05
2018-07-19T00:22:23.573Z,51.22
2018-07-19T00:24:52.085Z,51.64
2018-07-19T00:27:20.769Z,51.34
2018-07-19T00:29:49.321Z,51.21
2018-07-19T00:32:17.800Z,52.06
2018-07-19T00:34:47.243Z,51.39
2018-07-19T00:37:17.095Z,51.67
2018-07-19T00:39:45.688Z,51.92
2018-07-19T00:42:14.540Z,51.64
2018-07-19T00:44:43.077Z,52.59
2018-07-19T00:47:11.761Z,52.41
2018-07-19T00:49:41.956Z,53.20
2018-07-19T00:52:10.762Z,53.67
2018-07-19T00:54:39.327Z,54.52
2018-07-19T00:57:08.045Z,55.44
2018-07-19T00:59:37.739Z,55.73
2018-07-19T01:02:07.576Z,55.43
2018-07-19T01:04:37.583Z,55.92
2018-07-19T01:07:06.756Z,56.15
2018-07-19T01:09:35.252Z,56.44
2018-07-19T01:12:05.017Z,56.56
2018-07-19T01:14:33.515Z,56.34
2018-07-19T01:17:02.758Z,56.17
2018-07-19T01:19:31.846Z,56.53
2018-07-19T01:22:00.338Z,56.82
2018-07-19T01:24:29.209Z,56.86
2018-07-19T01:26:59.336Z,56.61
2018-07-19T01:29:27.985Z,57.07
2018-07-19T01:31:59.589Z,57.65
2018-07-19T01:34:28.754Z,57.98
2018-07-19T01:36:57.277Z,57.54
2018-07-19T01:39:25.776Z,58.19
2018-07-19T01:42:32.140Z,58.13
2018-07-19T01:45:00.979Z,57.62
2018-07-19T01:47:30.728Z,57.78
2018-07-19T01:49:59.592Z,58.80
2018-07-19T01:52:28.908Z,58.80
2018-07-19T01:54:57.466Z,58.46
2018-07-19T01:57:26.169Z,58.92
2018-07-19T01:59:54.734Z,58.52
2018-07-19T02:02:24.354Z,58.39
2018-07-19T02:04:53.161Z,58.25
2018-07-19T02:07:22.341Z,58.24
2018-07-19T02:09:50.828Z,58.16
2018-07-19T02:12:20.792Z,57.86
2018-07-19T02:14:49.449Z,58.32
2018-07-19T02:17:18.741Z,58.27
2018-07-19T02:19:47.281Z,58.80
2018-07-19T02:22:17.047Z,58.26
2018-07-19T02:24:46.221Z,58.49
2018-07-19T02:27:15.315Z,58.93
2018-07-19T02:29:44.561Z,58.83
2018-07-19T02:32:14.024Z,59.35
2018-07-19T02:34:43.149Z,60.06
2018-07-19T02:37:12.242Z,59.11
2018-07-19T02:39:40.864Z,58.98
2018-07-19T02:42:09.420Z,59.46
2018-07-19T02:44:37.962Z,60.07
2018-07-19T02:47:06.704Z,60.83
2018-07-19T02:49:36.096Z,60.65
2018-07-19T02:52:04.638Z,60.08
2018-07-19T02:54:35.491Z,59.97
2018-07-19T02:57:04.207Z,60.01
2018-07-19T02:59:33.905Z,60.95
2018-07-19T03:02:02.518Z,60.83
2018-07-19T03:04:31.000Z,60.56
2018-07-19T03:07:00.514Z,61.67
2018-07-19T03:09:29.073Z,61.53
2018-07-19T03:11:57.608Z,62.06
2018-07-19T03:14:26.116Z,61.53
2018-07-19T03:16:54.729Z,60.96
2018-07-19T03:19:23.885Z,61.11
2018-07-19T03:21:52.647Z,61.12
2018-07-19T03:24:21.172Z,61.59
2018-07-19T03:26:49.709Z,61.07
2018-07-19T03:29:18.193Z,61.94
2018-07-19T03:31:46.777Z,62.14
2018-07-19T03:34:15.417Z,62.50
2018-07-19T03:36:44.230Z,62.16
2018-07-19T03:39:12.932Z,63.05
2018-07-19T03:41:41.756Z,63.48
2018-07-19T03:44:10.244Z,63.92
2018-07-19T03:46:38.800Z,63.36
2018-07-19T03:49:08.917Z,63.93
2018-07-19T03:51:37.404Z,63.71
2018-07-19T03:54:05.992Z,63.79
2018-07-19T03:56:34.933Z,63.77
2018-07-19T03:59:03.700Z,64.26
2018-07-19T04:01:32.752Z,63.94
2018-07-19T04:04:01.335Z,64.15
2018-07-19T04:06:30.888Z,64.08
2018-07-19T04:09:00.188Z,64.19
2018-07-19T04:11:28.736Z,64.25
2018-07-19T04:13:57.609Z,64.00
2018-07-19T04:16:26.267Z,64.67
2018-07-19T04:18:55.015Z,64.56
2018-07-19T04:21:24.381Z,64.49
2018-07-19T04:23:53.331Z,64.14
2018-07-19T04:26:23.246Z,64.48
2018-07-19T04:28:52.012Z,64.65
2018-07-19T04:31:21.702Z,64.43
2018-07-19T04:33:51.238Z,64.36
2018-07-19T04:36:19.732Z,64.04
2018-07-19T04:38:48.418Z,64.09
2018-07-19T04:41:17.526Z,64.38
2018-07-19T04:43:46.967Z,63.71
2018-07-19T04:46:15.593Z,63.60
2018-07-19T04:48:44.105Z,64.01
2018-07-19T04:51:12.590Z,64.28
2018-07-19T04:53:41.735Z,64.77
2018-07-19T04:56:10.350Z,64.42
2018-07-19T04:58:39.764Z,65.31
2018-07-19T05:01:08.407Z,65.09
2018-07-19T05:03:37.147Z,65.02
2018-07-19T05:06:07.511Z,64.77
2018-07-19T05:08:36.093Z,65.48
2018-07-19T05:11:04.621Z,64.89
2018-07-19T05:13:33.205Z,64.87
2018-07-19T05:16:01.932Z,65.57
2018-07-19T05:18:31.171Z,65.23
2018-07-19T05:21:01.458Z,65.13
2018-07-19T05:23:30.218Z,65.40
2018-07-19T05:25:59.206Z,64.53
2018-07-19T05:28:28.266Z,64.58
2018-07-19T05:30:58.275Z,64.31
2018-07-19T05:33:27.234Z,63.98
2018-07-19T05:35:57.845Z,64.04
2018-07-19T05:38:27.319Z,64.32
2018-07-19T05:40:56.177Z,64.00
2018-07-19T05:43:26.094Z,63.69
2018-07-19T05:45:57.421Z,63.80
2018-07-19T05:48:26.906Z,63.48
2018-07-19T05:50:56.183Z,63.41
2018-07-19T05:53:25.006Z,62.71
2018-07-19T05:55:57.340Z,62.85
2018-07-19T05:58:26.642Z,62.99
2018-07-19T06:00:56.430Z,62.60
2018-07-19T06:03:26.990Z,61.57
2018-07-19T06:05:56.193Z,62.28
2018-07-19T06:08:25.116Z,60.80
2018-07-19T06:10:54.453Z,62.03
2018-07-19T06:13:24.297Z,61.40
2018-07-19T06:15:53.734Z,61.86
2018-07-19T06:18:22.555Z,61.48
2018-07-19T06:20:51.345Z,61.94
2018-07-19T06:23:20.192Z,61.61
2018-07-19T06:25:48.852Z,61.41
2018-07-19T06:28:18.254Z,61.49
2018-07-19T06:30:48.232Z,60.97
2018-07-19T06:33:16.813Z,61.28
2018-07-19T06:35:46.649Z,61.00
2018-07-19T06:38:15.379Z,61.24
2018-07-19T06:40:44.170Z,58.73
2018-07-19T06:43:12.874Z,57.56
2018-07-19T06:45:41.808Z,57.45
2018-07-19T06:48:11.196Z,58.17
2018-07-19T06:50:39.979Z,57.25
2018-07-19T06:53:08.561Z,55.63
2018-07-19T06:55:37.455Z,55.12
2018-07-19T06:58:06.290Z,55.32
2018-07-19T07:00:35.517Z,55.35
2018-07-19T07:03:04.575Z,55.40
2018-07-19T07:05:33.165Z,54.69
2018-07-19T07:08:02.108Z,54.32
2018-07-19T07:10:30.755Z,53.73
2018-07-19T07:12:59.449Z,53.70
2018-07-19T07:15:28.226Z,53.54
2018-07-19T07:17:57.138Z,53.38
2018-07-19T07:20:26.362Z,52.54
2018-07-19T07:22:55.950Z,50.87
2018-07-19T07:25:24.625Z,49.99
2018-07-19T07:27:53.150Z,48.51
2018-07-19T07:30:21.753Z,49.82
2018-07-19T07:32:50.260Z,48.75
2018-07-19T07:35:18.853Z,50.05
2018-07-19T07:37:49.013Z,48.52
2018-07-19T07:40:17.585Z,48.53
2018-07-19T07:42:46.403Z,48.84
2018-07-19T07:45:15.198Z,48.06
2018-07-19T07:47:43.981Z,48.35
2018-07-19T07:50:13.338Z,47.28
2018-07-19T07:52:41.902Z,47.24
2018-07-19T07:55:11.318Z,46.32
2018-07-19T07:57:39.916Z,46.02
2018-07-19T08:00:09.445Z,44.93
2018-07-19T08:02:38.024Z,45.64
2018-07-19T08:05:06.601Z,45.87
2018-07-19T08:07:35.391Z,45.02
2018-07-19T08:10:03.984Z,45.19
2018-07-19T08:12:33.348Z,44.71
2018-07-19T08:15:03.816Z,44.70
2018-07-19T08:17:32.395Z,43.53
2018-07-19T08:20:02.646Z,42.25
2018-07-19T08:22:31.291Z,43.11
2018-07-19T08:25:00.153Z,42.55
2018-07-19T08:27:28.860Z,42.22
2018-07-19T08:29:57.535Z,43.08
2018-07-19T08:32:26.231Z,42.24
2018-07-19T08:34:55.531Z,41.41
2018-07-19T08:37:24.069Z,40.83
2018-07-19T08:39:52.605Z,41.69
2018-07-19T08:42:21.453Z,40.24
2018-07-19T08:44:50.207Z,40.97
2018-07-19T08:47:18.757Z,40.69
2018-07-19T08:49:48.276Z,38.50
2018-07-19T08:52:18.451Z,39.59
2018-07-19T08:54:47.506Z,39.51
2018-07-19T08:57:16.352Z,40.21
2018-07-19T08:59:44.992Z,39.23
2018-07-19T09:02:13.571Z,39.89
2018-07-19T09:04:43.291Z,39.28
2018-07-19T09:07:11.928Z,39.74
2018-07-19T09:09:40.438Z,40.83
2018-07-19T09:12:10.759Z,39.89
2018-07-19T09:14:39.322Z,39.40
2018-07-19T09:17:08.443Z,38.34
2018-07-19T09:19:39.108Z,39.38
2018-07-19T09:22:08.399Z,39.07
2018-07-19T09:24:37.002Z,39.11
2018-07-19T09:27:06.720Z,39.08
2018-07-19T09:29:36.684Z,38.12
2018-07-19T09:32:06.639Z,36.21
2018-07-19T09:34:36.081Z,36.81
2018-07-19T09:37:05.920Z,36.98
2018-07-19T09:39:34.460Z,36.37
2018-07-19T09:42:03.409Z,36.89
2018-07-19T09:44:31.963Z,37.42
2018-07-19T09:47:00.909Z,36.40
2018-07-19T09:49:29.468Z,36.52
2018-07-19T09:51:58.803Z,36.86
2018-07-19T09:54:38.576Z,35.75
2018-07-19T09:57:07.225Z,37.02
2018-07-19T09:59:35.721Z,35.92
2018-07-19T10:02:04.386Z,34.56
2018-07-19T10:04:33.017Z,34.48
2018-07-19T10:07:01.577Z,34.62
2018-07-19T10:09:30.187Z,34.24
2018-07-19T10:12:00.861Z,34.48
2018-07-19T10:14:29.870Z,35.54
2018-07-19T10:16:59.129Z,35.03
2018-07-19T10:19:27.815Z,35.17
2018-07-19T10:21:56.394Z,34.70
2018-07-19T10:24:25.709Z,34.64
2018-07-19T10:26:54.583Z,34.38
2018-07-19T10:29:23.685Z,33.85
2018-07-19T10:31:52.459Z,34.26
2018-07-19T10:34:21.070Z,34.01
2018-07-19T10:36:49.611Z,34.75
2018-07-19T10:39:18.879Z,34.19
2018-07-19T10:41:47.400Z,34.44
2018-07-19T10:44:17.651Z,34.04
2018-07-19T10:46:46.221Z,34.01
2018-07-19T10:49:14.828Z,35.26
2018-07-19T10:51:43.889Z,36.06
2018-07-19T10:54:12.530Z,35.04
2018-07-19T10:56:41.614Z,33.91
2018-07-19T10:59:10.182Z,34.64
2018-07-19T11:01:38.692Z,34.61
2018-07-19T11:04:07.198Z,33.51
2018-07-19T11:06:35.906Z,33.99
2018-07-19T11:09:07.718Z,33.66
2018-07-19T11:11:38.627Z,34.10
2018-07-19T11:14:07.308Z,33.95
2018-07-19T11:23:24.562Z,33.58
2018-07-19T11:25:53.517Z,34.03
2018-07-19T11:28:24.276Z,34.24
2018-07-19T11:30:54.446Z,33.95
2018-07-19T11:33:24.372Z,33.99
2018-07-19T11:35:54.507Z,33.97
2018-07-19T11:38:23.251Z,33.50
2018-07-19T11:40:52.944Z,33.95
2018-07-19T11:43:21.717Z,33.81
2018-07-19T11:45:56.608Z,32.91
2018-07-19T11:48:27.107Z,32.95
2018-07-19T11:50:56.407Z,33.12
2018-07-19T11:53:26.478Z,33.32
2018-07-19T11:55:55.977Z,33.15
2018-07-19T11:58:25.842Z,33.16
2018-07-19T12:00:58.156Z,33.40
2018-07-19T12:03:26.711Z,34.76
2018-07-19T12:05:56.184Z,32.11
2018-07-19T12:08:25.101Z,32.99
2018-07-19T12:10:56.312Z,33.58
2018-07-19T12:13:27.177Z,32.23
2018-07-19T12:15:57.196Z,31.35
2018-07-19T12:18:26.479Z,30.69
2018-07-19T12:20:55.143Z,31.40
2018-07-19T12:23:25.346Z,31.89
2018-07-19T12:25:53.987Z,32.09
2018-07-19T12:28:22.547Z,31.54
2018-07-19T12:30:51.892Z,32.32
2018-07-19T12:33:20.938Z,31.62
2018-07-19T12:35:49.444Z,30.93
2018-07-19T12:38:17.983Z,31.54
2018-07-19T12:40:46.631Z,30.53
2018-07-19T12:43:15.696Z,30.64
2018-07-19T12:45:44.260Z,31.72
2018-07-19T12:48:12.800Z,31.31
2018-07-19T12:50:43.048Z,31.39
2018-07-19T12:53:11.542Z,31.20
2018-07-19T12:55:40.690Z,30.13
2018-07-19T12:58:11.188Z,29.70
2018-07-19T13:00:39.825Z,29.19
2018-07-19T13:03:08.454Z,31.09
2018-07-19T13:05:37.052Z,29.63
2018-07-19T13:08:05.694Z,30.11
2018-07-19T13:10:35.094Z,29.76
2018-07-19T13:13:04.571Z,31.08
2018-07-19T13:15:33.165Z,30.50
2018-07-19T13:18:03.543Z,30.25
2018-07-19T13:20:32.229Z,29.79
2018-07-19T13:23:01.038Z,30.09
2018-07-19T13:25:29.647Z,30.28
2018-07-19T13:27:59.113Z,29.49
2018-07-19T13:30:27.689Z,30.50
2018-07-19T13:32:56.351Z,28.98
2018-07-19T13:35:25.093Z,29.93
2018-07-19T13:37:53.746Z,29.76
2018-07-19T13:40:24.184Z,28.08
2018-07-19T13:42:52.729Z,28.35
2018-07-19T13:45:21.690Z,29.46
2018-07-19T13:47:50.396Z,29.00
2018-07-19T13:50:20.280Z,29.47
2018-07-19T13:52:59.929Z,30.63
2018-07-19T13:55:29.401Z,29.68
2018-07-19T13:57:59.468Z,30.31
2018-07-19T14:00:28.666Z,30.63
2018-07-19T14:03:00.778Z,30.88
2018-07-19T14:05:31.418Z,30.76
2018-07-19T14:08:00.517Z,31.45
2018-07-19T14:10:29.249Z,31.33
2018-07-19T14:12:57.937Z,30.75
2018-07-19T14:15:27.558Z,31.20
2018-07-19T14:17:56.433Z,30.48
2018-07-19T14:20:25.077Z,30.64
2018-07-19T14:22:55.295Z,29.48
2018-07-19T14:25:23.912Z,29.59
2018-07-19T14:27:52.518Z,30.32
2018-07-19T14:30:21.065Z,30.46
2018-07-19T14:32:49.675Z,29.65
2018-07-19T14:35:18.271Z,28.52
2018-07-19T14:37:47.426Z,28.61
2018-07-19T14:40:16.378Z,28.86
2018-07-19T14:42:44.932Z,27.77
2018-07-19T14:45:13.674Z,28.61
2018-07-19T14:47:42.267Z,28.58
2018-07-19T14:50:10.949Z,27.70
2018-07-19T14:52:39.868Z,26.75
2018-07-19T14:55:09.008Z,26.97
2018-07-19T14:57:38.138Z,27.18
2018-07-19T15:00:08.787Z,29.00
2018-07-19T15:02:38.151Z,28.83
2018-07-19T15:05:06.776Z,29.75
2018-07-19T15:07:36.192Z,29.96
2018-07-19T15:10:06.332Z,30.65
2018-07-19T15:12:36.641Z,29.53
2018-07-19T15:15:05.830Z,28.50
2018-07-19T15:17:35.916Z,29.44
2018-07-19T15:20:05.742Z,28.94
2018-07-19T15:22:34.489Z,28.36
2018-07-19T15:25:03.627Z,29.47
2018-07-19T15:27:32.805Z,29.34
2018-07-19T15:30:01.798Z,28.72
2018-07-19T15:32:31.038Z,27.02
2018-07-19T15:35:02.228Z,28.70
2018-07-19T15:37:30.709Z,28.18
2018-07-19T15:40:00.342Z,29.58
2018-07-19T15:42:29.865Z,28.79
2018-07-19T15:45:00.045Z,28.28
2018-07-19T15:47:28.598Z,28.74
2018-07-19T15:49:57.852Z,27.63
2018-07-19T15:52:26.711Z,26.59
2018-07-19T15:54:55.176Z,26.18
2018-07-19T15:57:25.206Z,26.31
2018-07-19T15:59:54.000Z,26.26
2018-07-19T16:02:22.778Z,25.85
2018-07-19T16:04:53.598Z,26.59
2018-07-19T16:07:22.298Z,26.05
2018-07-19T16:09:50.831Z,25.25
2018-07-19T16:12:19.459Z,25.36
2018-07-19T16:14:48.068Z,26.59
2018-07-19T16:17:16.651Z,26.41
2018-07-19T16:19:45.484Z,27.42
2018-07-19T16:22:14.823Z,25.62
2018-07-19T16:24:43.322Z,25.93
2018-07-19T16:27:13.625Z,25.24
2018-07-19T16:29:42.176Z,25.73
2018-07-19T16:32:11.048Z,26.43
2018-07-19T16:34:39.654Z,26.44
2018-07-19T16:37:09.055Z,26.04
2018-07-19T16:39:37.666Z,26.10
2018-07-19T16:42:06.319Z,26.16
2018-07-19T16:44:35.243Z,26.68
2018-07-19T16:47:04.025Z,27.10
2018-07-19T16:49:33.903Z,26.99
2018-07-19T16:52:03.418Z,27.72
2018-07-19T16:54:31.925Z,27.84
2018-07-19T16:57:01.063Z,29.21
2018-07-19T16:59:29.630Z,29.41
2018-07-19T17:01:58.912Z,29.94
2018-07-19T17:04:27.328Z,29.13
2018-07-19T17:06:55.901Z,30.39
2018-07-19T17:09:24.695Z,29.83
2018-07-19T17:11:54.371Z,29.20
2018-07-19T17:14:23.540Z,30.33
2018-07-19T17:16:52.565Z,30.67
2018-07-19T17:19:21.636Z,29.89
2018-07-19T17:21:52.269Z,29.57
2018-07-19T17:24:24.057Z,31.01
2018-07-19T17:26:54.537Z,30.98
2018-07-19T17:29:23.168Z,31.26
2018-07-19T17:31:52.444Z,31.05
2018-07-19T17:34:22.323Z,31.06
2018-07-19T17:36:51.961Z,30.99
2018-07-19T17:39:21.600Z,31.55
2018-07-19T17:41:50.128Z,32.69
2018-07-19T17:44:18.745Z,32.94
2018-07-19T17:46:47.553Z,33.81
2018-07-19T17:49:16.322Z,32.61
2018-07-19T17:51:45.083Z,32.45
2018-07-19T17:54:15.327Z,32.91
2018-07-19T17:56:44.040Z,32.64
2018-07-19T17:59:13.695Z,32.84
2018-07-19T18:01:43.337Z,33.31
2018-07-19T18:04:12.202Z,32.76
2018-07-19T18:06:40.777Z,33.04
2018-07-19T18:09:10.795Z,33.98
2018-07-19T18:11:40.120Z,33.80
2018-07-19T18:14:11.740Z,33.59
2018-07-19T18:16:42.215Z,33.77
2018-07-19T18:19:10.836Z,34.42
2018-07-19T18:21:40.519Z,34.79
2018-07-19T18:24:09.202Z,34.98
2018-07-19T18:26:38.011Z,35.63
2018-07-19T18:29:07.201Z,35.39
2018-07-19T18:31:35.843Z,35.24
2018-07-19T18:34:05.004Z,35.62
2018-07-19T18:36:33.623Z,35.95
2018-07-19T18:39:03.191Z,36.01
2018-07-19T18:41:32.188Z,35.65
2018-07-19T18:44:01.956Z,36.43
2018-07-19T18:46:30.552Z,36.07
2018-07-19T18:49:00.292Z,36.02
2018-07-19T18:51:30.431Z,36.25
2018-07-19T18:53:59.702Z,36.87
2018-07-19T18:56:28.298Z,36.38
2018-07-19T18:58:56.931Z,36.84
2018-07-19T19:01:25.797Z,37.38
2018-07-19T19:03:55.355Z,37.19
2018-07-19T19:06:24.262Z,37.13
2018-07-19T19:08:52.956Z,37.69
2018-07-19T19:11:22.260Z,38.35
2018-07-19T19:13:51.877Z,38.18
2018-07-19T19:16:21.232Z,37.96
2018-07-19T19:18:50.432Z,38.50
2018-07-19T19:21:19.616Z,38.44
2018-07-19T19:23:48.377Z,39.48
2018-07-19T19:26:18.457Z,39.14
2018-07-19T19:28:47.952Z,39.05
2018-07-19T19:31:17.884Z,39.03
2018-07-19T19:33:47.637Z,39.98
2018-07-19T19:36:17.719Z,39.94
2018-07-19T19:38:46.280Z,39.43
2018-07-19T19:41:15.842Z,39.86
2018-07-19T19:43:44.689Z,40.52
2018-07-19T19:46:14.179Z,40.73
2018-07-19T19:48:47.165Z,41.15
2018-07-19T19:51:16.242Z,40.79
2018-07-19T19:53:46.367Z,40.99
2018-07-19T19:56:14.961Z,41.65
2018-07-19T19:58:44.629Z,41.55
2018-07-19T20:01:13.343Z,42.30
2018-07-19T20:03:42.353Z,42.34
2018-07-19T20:06:10.992Z,42.60
2018-07-19T20:08:40.311Z,42.92
2018-07-19T20:11:09.010Z,43.23
2018-07-19T20:13:37.647Z,43.25
2018-07-19T20:16:44.664Z,43.03
2018-07-19T20:19:38.661Z,42.82
2018-07-19T20:33:34.302Z,43.50
2018-07-19T20:36:03.305Z,44.49
2018-07-19T20:38:32.532Z,44.21
2018-07-19T20:41:01.098Z,43.59
2018-07-19T20:43:29.986Z,43.75
2018-07-19T20:45:58.866Z,44.70
2018-07-19T20:48:27.487Z,45.14
2018-07-19T20:50:56.079Z,44.84
2018-07-19T20:53:27.017Z,45.28
2018-07-19T20:55:55.562Z,45.20
2018-07-19T20:58:24.672Z,44.47
2018-07-19T21:00:54.298Z,45.40
2018-07-19T21:03:25.318Z,45.65
2018-07-19T21:05:58.977Z,45.98
2018-07-19T21:08:28.476Z,45.47
2018-07-19T21:11:00.342Z,45.56
2018-07-19T21:13:29.976Z,45.53
2018-07-19T21:15:59.541Z,45.59
2018-07-19T21:18:28.001Z,45.57
2018-07-19T21:20:56.969Z,46.06
2018-07-19T21:23:26.779Z,46.61
2018-07-19T21:25:56.890Z,45.69
2018-07-19T21:28:25.996Z,46.64
2018-07-19T21:30:55.357Z,46.90
2018-07-19T21:33:24.482Z,47.06
2018-07-19T21:35:54.255Z,46.72
2018-07-19T21:38:22.749Z,46.66
2018-07-19T21:40:51.564Z,46.87
2018-07-19T21:43:20.953Z,46.67
2018-07-19T21:45:49.496Z,46.42
2018-07-19T21:48:18.076Z,46.94
2018-07-19T21:50:46.687Z,47.31
2018-07-19T21:53:15.516Z,47.91
2018-07-19T21:55:44.094Z,47.16
2018-07-19T21:58:13.317Z,47.00
2018-07-19T22:00:47.210Z,46.86
2018-07-19T22:03:15.767Z,47.69
2018-07-19T22:05:45.240Z,47.45
2018-07-19T22:08:13.771Z,48.34
2018-07-19T22:10:43.241Z,48.13
2018-07-19T22:13:12.080Z,48.30
2018-07-19T22:15:44.754Z,47.82
2018-07-19T22:18:14.101Z,47.35
2018-07-19T22:20:43.724Z,47.75
2018-07-19T22:23:12.396Z,47.64
2018-07-19T22:25:41.039Z,48.21
2018-07-19T22:28:10.723Z,49.07
2018-07-19T22:30:40.969Z,49.04
2018-07-19T22:33:10.312Z,48.75
2018-07-19T22:35:39.279Z,48.95
2018-07-19T22:38:08.725Z,49.55
2018-07-19T22:40:37.273Z,49.22
2018-07-19T22:43:05.960Z,49.41
2018-07-19T22:45:34.478Z,49.37
2018-07-19T22:48:04.627Z,49.90
2018-07-19T22:50:34.357Z,50.35
2018-07-19T22:53:03.308Z,49.91
2018-07-19T22:55:31.768Z,49.73
2018-07-19T22:58:00.478Z,49.76
2018-07-19T23:00:29.017Z,50.38
2018-07-19T23:02:57.906Z,50.61
2018-07-19T23:05:27.099Z,50.39
2018-07-19T23:07:55.780Z,50.61
2018-07-19T23:10:24.471Z,50.24
2018-07-19T23:12:53.581Z,50.22
2018-07-19T23:15:22.157Z,50.52
2018-07-19T23:17:50.747Z,50.66
2018-07-19T23:20:19.339Z,50.38
2018-07-19T23:22:55.434Z,50.23
2018-07-19T23:25:24.783Z,50.08
2018-07-19T23:27:53.978Z,50.59
2018-07-19T23:30:25.537Z,50.66
2018-07-19T23:32:54.230Z,50.66
2018-07-19T23:35:24.771Z,51.17
2018-07-19T23:37:55.016Z,51.34
2018-07-19T23:40:27.091Z,51.27
2018-07-19T23:43:58.974Z,51.70
2018-07-19T23:46:31.991Z,51.66
2018-07-19T23:49:07.329Z,51.82
2018-07-19T23:51:37.470Z,52.12
2018-07-19T23:54:06.182Z,52.37
2018-07-19T23:56:35.268Z,52.32
2018-07-19T23:59:04.271Z,53.00
